Terminal Aerodrome Forecast
Issued by NWS Cleveland, OH

Home | Current Version | Previous Version | Graphics & Text | Print | Product List | Glossary On
Versions: 1 2 3 4 5 6 7 8 9 10 11 12 13 14 15 16 17 18 19 20 21 22 23 24 25 26 27 28 29 30
000
FTUS41 KCLE 241500 AAB
TAFCLE
TAF AMD
KCLE 241501Z 2415/2518 20025G35KT P6SM VCSH BKN030 BKN060
     FM241640 25030G42KT 3SM -TSRA BR OVC025CB
     FM241730 22020G30KT P6SM VCSH OVC035
     FM241830 23028G42KT P6SM OVC035
     FM250000 24025G35KT P6SM OVC025
     FM250700 24015G25KT P6SM OVC035
     FM251200 24010G20KT P6SM OVC035=

USA.gov is the U.S. government's official web portal to all federal, state and local government web resources and services.